Relevés horaires Saint-Mandrier-sur-Mer - Cap Cépet (France)


Relevés horaires à Saint-Mandrier-sur-Mer - Cap Cépet - Samedi 01 Févr. 2020
Heure UTC1 Température [°C] Vent [km/h] Hum. [%] Pres.4 [hPa] Visi. [Km] Nébu. [octa] Préc.5 [mm] Cond.
2m. Res. Ros. Dir.2 Vit. Moy. Raf.3
23:00 13.1 11.3 9.9 NO 20.4 -- 33.3 81 1020.8(0.8/3h) -- -- -- --
22:00 13.0 11 10.5 NO 22.2 -- 31.5 85 1020.7(0.3/3h) -- -- -- --
21:00 13.3 11.4 11.0 NO 22.2 -- 31.5 86 1020.7(0.9/3h) -- -- -- --
20:00 13.2 11.1 11.4 NO 24.1 -- 29.6 89 1019.9(0.2/3h) -- -- -- --
19:00 12.6 10.8 11.5 NO 18.5 -- 27.8 93 1020.4(0.6/3h) -- -- -- --
18:00 12.5 10.8 12.0 NO 16.7 -- 25.9 97 1019.9(-0.1/3h) -- -- -- --
17:00 12.7 11.3 12.1 NO 14.8 -- 18.5 96 1019.8(-0.4/3h) -- -- -- --
16:00 13.6 13 11.8 NO 9.3 -- 13.0 89 1019.7(-0.2/3h) -- -- -- --
15:00 13.9 13.9 12.3 O 5.6 -- 9.3 90 1019.9(-1.0/3h) -- -- -- --
14:00 13.8 13.6 12.2 O 7.4 -- 11.1 90 1020.1(-0.9/3h) -- -- -- --
13:00 13.5 13.5 11.9 OSO 5.6 -- 7.4 90 1019.9(-1.2/3h) -- -- -- --
12:00 14.3 14.3 12.0 OSO 3.7 -- 7.4 86 1020.9(0.2/3h) 15 7/8 -- --
11:00 13.9 13.9 11.6 E 3.7 -- 7.4 86 1021(0.9/3h) -- -- -- --
10:00 11.0 10.7 10.2 E 5.6 -- 11.1 95 1021.3(1.5/3h) -- -- -- --
09:00 10.8 10.1 9.6 E 7.4 -- 9.3 92 1020.9(1.5/3h) 15 4/8 -- --
08:00 9.7 8.8 8.8 E 7.4 -- 9.3 94 1020.4(0.9/3h) -- -- -- --
07:00 9.1 7.7 8.2 E 9.3 -- 11.1 94 1019.9(0.5/3h) -- -- -- --
06:00 9.0 7.6 8.4 E 9.3 -- 13.0 96 1019.5(-0.2/3h) 18 2/8 -- --
05:00 9.4 8 8.8 E 9.3 -- 11.1 96 1019.5(-0.7/3h) -- -- -- --
04:00 8.9 7.4 8.0 E 9.3 -- 11.1 94 1019.4(-0.7/3h) -- -- -- --
03:00 9.9 9 8.8 E 7.4 -- 7.4 93 1019.6(-0.5/3h) -- -- -- --
02:00 10.0 9.6 8.9 E 5.6 -- 9.3 93 1020.1(-0.1/3h) -- -- -- --
01:00 9.8 9.4 8.7 E 5.6 -- 9.3 93 1020(-0.1/3h) -- -- -- --
00:00 10.3 9.5 9.2 E 7.4 -- 9.3 93 1020.1(0.0/3h) -- -- -- --

1 Coordinated Universal Time. Actuellement il est 10:00 locale et 08:00 UTC.

2 Le vent souffle depuis la direction indiquée vers la direction oposée.

3 Les rafales max. sont disponible 40 min après l'heure du relevé.

4 Pour les stations d'altitude (plus de 600m) le géopotentiel du niveau le plus proche de la pression obligatoire est indiqué.

5 Les stations disposant d'un diffuseur peuvent indiquer "trace". Cela signifie que des précipitations ont touchés le sol mais que la quantité est inférieure à 0.1 mm.

Récapitulatif de la journée
Température [°C] Vent [km/h] Ensoleillement4 [h] Precipitations totale5 [mm] Pression [Hpa]
Min1 Max.2 Moy.3 Max. Min Max.
8.5 15.1 0 33.3 0 h 0 min 0 1019.4 1021.3

1 Température minimale relevée entre 18:00 UTC la veille et 18:00 UTC le jour donné.

2 Température maximale relevée entre 06:00 UTC le jour donné et 06:00 UTC le lendemain.

3 Vent moyen de la journée basé sur les relevés horaires.

4 Ensoleillement en heures relevé entre 06:00 UTC la veille et 06:00 UTC le jour donné.

5 Précipitations totales tombées entre 06:00 UTC la jour donné et 06:00 UTC le lendemain.

Graphiques horaires